createdAt,value
2019-06-08T00:04:44.987Z,12.93
2019-06-08T00:09:52.258Z,16.47
2019-06-08T00:14:59.657Z,15.33
2019-06-08T00:20:07.366Z,14.63
2019-06-08T00:25:16.116Z,13.43
2019-06-08T00:30:23.709Z,9.07
2019-06-08T00:35:31.047Z,7.43
2019-06-08T00:40:38.549Z,5.73
2019-06-08T00:45:45.975Z,5.70
2019-06-08T00:50:54.400Z,5.17
2019-06-08T00:56:01.888Z,5.33
2019-06-08T01:01:09.690Z,5.80
2019-06-08T01:06:17.081Z,4.20
2019-06-08T01:11:24.745Z,6.57
2019-06-08T01:16:32.321Z,4.47
2019-06-08T01:21:39.654Z,1.37
2019-06-08T01:26:47.010Z,2.90
2019-06-08T01:31:54.517Z,2.57
2019-06-08T01:37:01.996Z,2.60
2019-06-08T01:42:09.346Z,2.80
2019-06-08T01:47:16.637Z,3.07
2019-06-08T01:52:24.636Z,2.30
2019-06-08T01:57:33.699Z,2.90
2019-06-08T02:02:41.359Z,1.73
2019-06-08T02:07:48.812Z,3.57
2019-06-08T02:12:56.112Z,2.47
2019-06-08T02:18:03.540Z,2.20
2019-06-08T02:23:10.968Z,1.67
2019-06-08T02:28:18.382Z,3.23
2019-06-08T02:33:25.813Z,2.37
2019-06-08T02:38:34.592Z,2.10
2019-06-08T02:43:42.140Z,3.77
2019-06-08T02:49:03.543Z,3.50
2019-06-08T02:53:59.628Z,6.67
2019-06-08T02:59:07.342Z,8.77
2019-06-08T03:04:17.438Z,6.17
2019-06-08T03:09:27.637Z,1.60
2019-06-08T03:14:35.603Z,6.20
2019-06-08T03:19:44.632Z,3.30
2019-06-08T03:24:53.184Z,4.60
2019-06-08T03:30:15.092Z,1.93
2019-06-08T03:35:10.793Z,3.87
2019-06-08T03:40:18.480Z,4.90
2019-06-08T03:45:25.781Z,3.77
2019-06-08T03:50:35.302Z,5.57
2019-06-08T03:55:44.953Z,6.17
2019-06-08T04:00:51.712Z,4.40
2019-06-08T04:05:59.185Z,3.83
2019-06-08T04:11:06.646Z,16.57
2019-06-08T04:16:13.985Z,4.23
2019-06-08T04:21:21.349Z,4.87
2019-06-08T04:26:28.768Z,6.00
2019-06-08T04:31:37.735Z,3.83
2019-06-08T04:36:46.350Z,3.87
2019-06-08T04:41:55.343Z,3.67
2019-06-08T04:47:02.774Z,3.70
2019-06-08T04:52:10.075Z,2.23
2019-06-08T04:57:17.366Z,4.70
2019-06-08T05:02:24.818Z,4.57
2019-06-08T05:07:32.261Z,3.20
2019-06-08T05:12:41.165Z,3.27
2019-06-08T05:17:49.665Z,2.40
2019-06-08T05:22:57.722Z,2.30
2019-06-08T05:28:05.580Z,1.77
2019-06-08T05:33:12.826Z,2.67
2019-06-08T05:38:20.200Z,1.37
2019-06-08T05:43:27.585Z,3.67
2019-06-08T05:48:34.870Z,2.67
2019-06-08T05:53:42.255Z,1.87
2019-06-08T05:58:50.313Z,1.20
2019-06-08T06:03:58.201Z,0.83
2019-06-08T06:09:07.582Z,3.20
2019-06-08T06:14:15.280Z,2.80
2019-06-08T06:19:23.002Z,5.77
2019-06-08T06:24:30.426Z,2.17
2019-06-08T06:29:37.881Z,2.60
2019-06-08T06:34:45.839Z,4.17
2019-06-08T06:39:53.454Z,2.90
2019-06-08T06:45:01.016Z,3.10
2019-06-08T06:50:09.379Z,4.27
2019-06-08T06:55:17.320Z,1.07
2019-06-08T07:00:33.800Z,5.40
2019-06-08T07:05:41.274Z,2.60
2019-06-08T07:10:48.649Z,2.77
2019-06-08T07:15:58.164Z,2.67
2019-06-08T07:21:10.202Z,2.40
2019-06-08T07:26:17.526Z,1.97
2019-06-08T07:31:25.757Z,1.63
2019-06-08T07:36:33.247Z,1.53
2019-06-08T07:41:40.673Z,1.73
2019-06-08T07:46:49.364Z,2.40
2019-06-08T07:52:06.673Z,4.83
2019-06-08T07:57:05.996Z,5.20
2019-06-08T08:02:13.407Z,4.50
2019-06-08T08:07:20.879Z,2.30
2019-06-08T08:12:28.178Z,4.57
2019-06-08T08:17:35.661Z,1.93
2019-06-08T08:22:43.026Z,6.00
2019-06-08T08:27:51.893Z,3.63
2019-06-08T08:33:02.706Z,4.57
2019-06-08T08:38:08.485Z,1.87
2019-06-08T08:43:17.847Z,2.17
2019-06-08T08:48:28.386Z,3.23
2019-06-08T08:53:34.045Z,3.23
2019-06-08T08:58:41.480Z,3.83
2019-06-08T09:03:51.833Z,2.53
2019-06-08T09:09:00.785Z,2.00
2019-06-08T09:14:10.893Z,3.20
2019-06-08T09:19:18.375Z,2.80
2019-06-08T09:24:25.146Z,1.10
2019-06-08T09:29:32.507Z,2.23
2019-06-08T09:34:39.926Z,3.00
2019-06-08T09:39:48.295Z,2.33
2019-06-08T09:45:00.086Z,2.87
2019-06-08T09:50:05.736Z,3.17
2019-06-08T09:55:14.244Z,5.20
2019-06-08T10:00:25.649Z,2.17
2019-06-08T10:05:30.976Z,3.30
2019-06-08T10:10:38.409Z,3.70
2019-06-08T10:15:51.206Z,2.83
2019-06-08T10:20:58.138Z,2.23
2019-06-08T10:26:06.309Z,2.03
2019-06-08T10:31:14.266Z,3.37
2019-06-08T10:36:21.715Z,2.00
2019-06-08T10:41:29.145Z,2.03
2019-06-08T10:46:40.234Z,2.27
2019-06-08T10:51:48.477Z,3.13
2019-06-08T10:56:54.710Z,3.47
2019-06-08T11:02:05.387Z,2.37
2019-06-08T11:07:16.114Z,1.73
2019-06-08T11:12:22.668Z,3.40
2019-06-08T11:17:30.008Z,3.17
2019-06-08T11:22:37.590Z,2.23
2019-06-08T11:27:47.400Z,1.90
2019-06-08T11:32:54.382Z,2.50
2019-06-08T11:38:02.253Z,2.53
2019-06-08T11:43:10.690Z,2.03
2019-06-08T11:48:18.569Z,2.47
2019-06-08T11:53:28.675Z,4.27
2019-06-08T11:58:38.539Z,3.37
2019-06-08T12:03:48.233Z,2.60
2019-06-08T12:08:57.426Z,3.77
2019-06-08T12:14:04.860Z,2.37
2019-06-08T12:19:15.772Z,2.30
2019-06-08T12:24:21.491Z,2.30
2019-06-08T12:29:30.247Z,1.93
2019-06-08T12:34:38.367Z,2.70
2019-06-08T12:39:46.040Z,4.70
2019-06-08T12:44:53.481Z,3.37
2019-06-08T12:50:00.908Z,2.50
2019-06-08T12:55:15.906Z,3.47
2019-06-08T13:00:20.117Z,2.00
2019-06-08T13:05:28.309Z,2.17
2019-06-08T13:10:37.659Z,3.27
2019-06-08T13:15:44.737Z,1.72
2019-06-08T13:20:52.185Z,1.40
2019-06-08T13:25:59.610Z,2.65
2019-06-08T13:31:07.861Z,4.30
2019-06-08T13:36:18.711Z,1.95
2019-06-08T13:41:29.028Z,2.22
2019-06-08T13:46:33.908Z,3.83
2019-06-08T13:51:41.395Z,2.30
2019-06-08T13:56:50.618Z,2.92
2019-06-08T14:01:58.023Z,5.05
2019-06-08T14:07:07.610Z,1.87
2019-06-08T14:12:14.766Z,2.40
2019-06-08T14:17:24.155Z,2.87
2019-06-08T14:22:31.199Z,2.70
2019-06-08T14:27:38.664Z,3.00
2019-06-08T14:32:47.903Z,2.20
2019-06-08T14:37:55.150Z,2.77
2019-06-08T14:43:02.567Z,1.75
2019-06-08T14:48:10.051Z,5.62
2019-06-08T14:53:18.881Z,3.00
2019-06-08T14:58:32.775Z,2.87
2019-06-08T15:03:37.872Z,1.55
2019-06-08T15:08:50.092Z,3.33
2019-06-08T15:13:55.312Z,3.12
2019-06-08T15:19:02.841Z,3.50
2019-06-08T15:24:10.470Z,3.77
2019-06-08T15:29:17.948Z,2.42
2019-06-08T15:34:28.307Z,2.65
2019-06-08T15:39:34.539Z,5.10
2019-06-08T15:44:41.897Z,6.05
2019-06-08T15:49:50.429Z,4.00
2019-06-08T15:55:01.323Z,2.85
2019-06-08T16:00:10.191Z,3.95
2019-06-08T16:05:17.823Z,5.47
2019-06-08T16:10:26.331Z,2.53
2019-06-08T16:15:35.238Z,5.62
2019-06-08T16:20:42.644Z,3.35
2019-06-08T16:25:50.179Z,5.40
2019-06-08T16:30:57.608Z,1.93
2019-06-08T16:36:05.053Z,4.00
2019-06-08T16:41:12.542Z,3.50
2019-06-08T16:46:20.001Z,3.37
2019-06-08T16:51:27.374Z,4.90
2019-06-08T16:56:36.322Z,3.45
2019-06-08T17:01:44.117Z,4.83
2019-06-08T17:06:51.592Z,4.77
2019-06-08T17:11:58.896Z,4.47
2019-06-08T17:17:06.371Z,3.50
2019-06-08T17:22:13.798Z,5.07
2019-06-08T17:27:26.831Z,3.63
2019-06-08T17:32:31.340Z,4.43
2019-06-08T17:37:40.106Z,3.67
2019-06-08T17:42:47.820Z,4.23
2019-06-08T17:47:55.313Z,3.13
2019-06-08T17:53:02.687Z,2.97
2019-06-08T17:58:10.192Z,6.00
2019-06-08T18:03:17.726Z,6.07
2019-06-08T18:08:25.977Z,6.47
2019-06-08T18:13:34.237Z,3.03
2019-06-08T18:18:42.473Z,3.83
2019-06-08T18:23:50.834Z,4.23
2019-06-08T18:28:58.286Z,11.17
2019-06-08T18:34:08.268Z,7.17
2019-06-08T18:39:14.778Z,6.40
2019-06-08T18:44:39.390Z,3.77
2019-06-08T18:49:48.399Z,4.93
2019-06-08T18:54:57.683Z,6.13
2019-06-08T19:00:10.992Z,4.20
2019-06-08T19:05:14.168Z,6.53
2019-06-08T19:10:33.366Z,5.13
2019-06-08T19:15:44.259Z,3.80
2019-06-08T19:20:53.484Z,5.13
2019-06-08T19:26:00.588Z,9.07
2019-06-08T19:31:10.281Z,7.97
2019-06-08T19:36:18.190Z,9.03
2019-06-08T19:41:28.101Z,8.43
2019-06-08T19:46:34.995Z,7.63
2019-06-08T19:51:42.909Z,7.40
2019-06-08T19:56:54.274Z,9.03
2019-06-08T20:02:00.009Z,10.63
2019-06-08T20:07:08.720Z,11.57
2019-06-08T20:12:18.497Z,10.90
2019-06-08T20:17:28.187Z,12.37
2019-06-08T20:22:37.791Z,10.53
2019-06-08T20:27:45.304Z,11.00
2019-06-08T20:32:54.481Z,9.37
2019-06-08T20:38:02.065Z,12.53
2019-06-08T20:43:09.606Z,7.23
2019-06-08T20:48:18.258Z,7.97
2019-06-08T20:53:28.143Z,6.83
2019-06-08T20:58:37.029Z,9.57
2019-06-08T21:03:44.019Z,10.23
2019-06-08T21:08:53.100Z,7.50
2019-06-08T21:14:00.499Z,7.83
2019-06-08T21:19:07.936Z,8.43
2019-06-08T21:24:17.338Z,9.40
2019-06-08T21:29:26.766Z,7.60
2019-06-08T21:34:33.422Z,7.00
2019-06-08T21:39:40.908Z,9.97
2019-06-08T21:44:50.500Z,12.20
2019-06-08T21:50:00.364Z,14.33
2019-06-08T21:55:07.434Z,10.83
2019-06-08T22:00:38.136Z,6.47
2019-06-08T22:05:26.132Z,8.70
2019-06-08T22:10:33.618Z,8.27
2019-06-08T22:15:41.083Z,5.70
2019-06-08T22:20:48.784Z,7.50
2019-06-08T22:25:59.234Z,7.17
2019-06-08T22:31:07.754Z,6.70
2019-06-08T22:36:14.840Z,7.40
2019-06-08T22:41:22.338Z,11.80
2019-06-08T22:46:29.605Z,13.23
2019-06-08T22:51:38.357Z,9.80
2019-06-08T22:56:47.795Z,8.33
2019-06-08T23:01:56.543Z,9.07
2019-06-08T23:07:06.129Z,8.20
2019-06-08T23:12:13.022Z,6.53
2019-06-08T23:17:20.443Z,7.00
2019-06-08T23:22:27.843Z,5.73
2019-06-08T23:27:37.788Z,6.63
2019-06-08T23:32:44.118Z,5.83
2019-06-08T23:37:51.547Z,6.57
2019-06-08T23:43:01.204Z,7.23
2019-06-08T23:48:08.744Z,5.83
2019-06-08T23:53:18.236Z,7.13
2019-06-08T23:58:27.718Z,6.87
